sensor_id;sensor_type;location;lat;lon;timestamp;P1;durP1;ratioP1;P2;durP2;ratioP2
23506;SDS011;11930;53.076;18.250;2022-11-15T00:02:22;84.40;;;33.37;;
23506;SDS011;11930;53.076;18.250;2022-11-15T00:05:06;85.50;;;32.70;;
23506;SDS011;11930;53.076;18.250;2022-11-15T00:07:51;91.97;;;32.70;;
23506;SDS011;11930;53.076;18.250;2022-11-15T00:10:36;76.53;;;30.77;;
23506;SDS011;11930;53.076;18.250;2022-11-15T00:13:21;87.73;;;33.37;;
23506;SDS011;11930;53.076;18.250;2022-11-15T00:16:06;93.10;;;33.27;;
23506;SDS011;11930;53.076;18.250;2022-11-15T00:18:51;88.47;;;31.57;;
23506;SDS011;11930;53.076;18.250;2022-11-15T00:21:35;88.50;;;34.03;;
23506;SDS011;11930;53.076;18.250;2022-11-15T00:24:19;86.07;;;34.37;;
23506;SDS011;11930;53.076;18.250;2022-11-15T00:27:04;91.57;;;35.03;;
23506;SDS011;11930;53.076;18.250;2022-11-15T00:29:49;87.87;;;33.50;;
23506;SDS011;11930;53.076;18.250;2022-11-15T00:32:34;89.57;;;33.90;;
23506;SDS011;11930;53.076;18.250;2022-11-15T00:35:18;99.90;;;35.07;;
23506;SDS011;11930;53.076;18.250;2022-11-15T00:38:04;90.60;;;33.67;;
23506;SDS011;11930;53.076;18.250;2022-11-15T00:40:48;90.93;;;35.03;;
23506;SDS011;11930;53.076;18.250;2022-11-15T00:43:33;92.47;;;34.70;;
23506;SDS011;11930;53.076;18.250;2022-11-15T00:46:18;95.77;;;35.47;;
23506;SDS011;11930;53.076;18.250;2022-11-15T00:49:03;93.43;;;34.87;;
23506;SDS011;11930;53.076;18.250;2022-11-15T00:51:47;103.93;;;37.00;;
23506;SDS011;11930;53.076;18.250;2022-11-15T00:54:32;102.73;;;36.23;;
23506;SDS011;11930;53.076;18.250;2022-11-15T00:57:16;99.30;;;34.77;;
23506;SDS011;11930;53.076;18.250;2022-11-15T01:00:01;100.93;;;36.73;;
23506;SDS011;11930;53.076;18.250;2022-11-15T01:02:45;97.97;;;35.53;;
23506;SDS011;11930;53.076;18.250;2022-11-15T01:05:29;94.33;;;35.00;;
23506;SDS011;11930;53.076;18.250;2022-11-15T01:08:14;93.30;;;34.83;;
23506;SDS011;11930;53.076;18.250;2022-11-15T01:11:01;104.67;;;34.83;;
23506;SDS011;11930;53.076;18.250;2022-11-15T01:13:50;104.37;;;37.37;;
23506;SDS011;11930;53.076;18.250;2022-11-15T01:16:35;104.77;;;36.30;;
23506;SDS011;11930;53.076;18.250;2022-11-15T01:19:19;98.97;;;35.70;;
23506;SDS011;11930;53.076;18.250;2022-11-15T01:22:04;105.00;;;36.67;;
23506;SDS011;11930;53.076;18.250;2022-11-15T01:24:50;106.13;;;36.63;;
23506;SDS011;11930;53.076;18.250;2022-11-15T01:27:35;112.63;;;38.33;;
23506;SDS011;11930;53.076;18.250;2022-11-15T01:30:19;109.57;;;37.50;;
23506;SDS011;11930;53.076;18.250;2022-11-15T01:33:04;112.23;;;37.97;;
23506;SDS011;11930;53.076;18.250;2022-11-15T01:35:49;109.43;;;38.20;;
23506;SDS011;11930;53.076;18.250;2022-11-15T01:38:34;115.07;;;41.13;;
23506;SDS011;11930;53.076;18.250;2022-11-15T01:41:19;109.07;;;37.23;;
23506;SDS011;11930;53.076;18.250;2022-11-15T01:47:25;108.63;;;36.87;;
23506;SDS011;11930;53.076;18.250;2022-11-15T01:50:27;110.17;;;36.57;;
23506;SDS011;11930;53.076;18.250;2022-11-15T01:53:15;110.93;;;36.57;;
23506;SDS011;11930;53.076;18.250;2022-11-15T01:56:02;109.90;;;37.47;;
23506;SDS011;11930;53.076;18.250;2022-11-15T01:58:49;110.83;;;36.63;;
23506;SDS011;11930;53.076;18.250;2022-11-15T02:01:35;112.60;;;37.40;;
23506;SDS011;11930;53.076;18.250;2022-11-15T02:04:31;121.57;;;37.47;;
23506;SDS011;11930;53.076;18.250;2022-11-15T02:07:18;117.97;;;38.07;;
23506;SDS011;11930;53.076;18.250;2022-11-15T02:10:10;115.63;;;37.53;;
23506;SDS011;11930;53.076;18.250;2022-11-15T02:12:56;111.77;;;36.37;;
23506;SDS011;11930;53.076;18.250;2022-11-15T02:28:31;106.17;;;34.30;;
23506;SDS011;11930;53.076;18.250;2022-11-15T02:34:46;137.77;;;39.53;;
23506;SDS011;11930;53.076;18.250;2022-11-15T02:37:58;130.03;;;40.33;;
23506;SDS011;11930;53.076;18.250;2022-11-15T02:40:55;130.27;;;38.47;;
23506;SDS011;11930;53.076;18.250;2022-11-15T02:43:58;131.97;;;38.37;;
23506;SDS011;11930;53.076;18.250;2022-11-15T02:46:51;119.50;;;36.90;;
23506;SDS011;11930;53.076;18.250;2022-11-15T02:50:02;124.53;;;36.77;;
23506;SDS011;11930;53.076;18.250;2022-11-15T02:52:52;117.37;;;34.13;;
23506;SDS011;11930;53.076;18.250;2022-11-15T02:55:38;120.07;;;36.13;;
23506;SDS011;11930;53.076;18.250;2022-11-15T03:01:32;116.87;;;34.47;;
23506;SDS011;11930;53.076;18.250;2022-11-15T03:10:32;114.07;;;33.90;;
23506;SDS011;11930;53.076;18.250;2022-11-15T03:16:47;110.47;;;33.77;;
23506;SDS011;11930;53.076;18.250;2022-11-15T03:22:28;127.57;;;36.20;;
23506;SDS011;11930;53.076;18.250;2022-11-15T03:25:19;126.07;;;35.93;;
23506;SDS011;11930;53.076;18.250;2022-11-15T03:28:06;125.93;;;36.20;;
23506;SDS011;11930;53.076;18.250;2022-11-15T03:30:56;125.50;;;35.43;;
23506;SDS011;11930;53.076;18.250;2022-11-15T03:33:42;132.97;;;37.07;;
23506;SDS011;11930;53.076;18.250;2022-11-15T03:36:28;117.23;;;34.73;;
23506;SDS011;11930;53.076;18.250;2022-11-15T03:39:15;122.60;;;34.43;;
23506;SDS011;11930;53.076;18.250;2022-11-15T03:42:04;137.13;;;35.60;;
23506;SDS011;11930;53.076;18.250;2022-11-15T03:47:59;115.43;;;36.17;;
23506;SDS011;11930;53.076;18.250;2022-11-15T03:50:49;114.87;;;34.33;;
23506;SDS011;11930;53.076;18.250;2022-11-15T03:53:34;140.73;;;37.47;;
23506;SDS011;11930;53.076;18.250;2022-11-15T03:56:18;139.30;;;35.57;;
23506;SDS011;11930;53.076;18.250;2022-11-15T03:59:03;146.50;;;37.30;;
23506;SDS011;11930;53.076;18.250;2022-11-15T04:01:47;126.93;;;37.53;;
23506;SDS011;11930;53.076;18.250;2022-11-15T04:04:32;144.27;;;38.70;;
23506;SDS011;11930;53.076;18.250;2022-11-15T04:07:17;134.27;;;36.90;;
23506;SDS011;11930;53.076;18.250;2022-11-15T04:10:02;127.17;;;37.17;;
23506;SDS011;11930;53.076;18.250;2022-11-15T04:12:47;142.67;;;37.97;;
23506;SDS011;11930;53.076;18.250;2022-11-15T04:15:32;131.10;;;37.30;;
23506;SDS011;11930;53.076;18.250;2022-11-15T04:18:17;142.13;;;37.83;;
23506;SDS011;11930;53.076;18.250;2022-11-15T04:21:01;169.93;;;39.63;;
23506;SDS011;11930;53.076;18.250;2022-11-15T04:24:05;148.77;;;38.60;;
23506;SDS011;11930;53.076;18.250;2022-11-15T04:26:59;170.33;;;39.13;;
23506;SDS011;11930;53.076;18.250;2022-11-15T04:29:43;162.27;;;38.87;;
23506;SDS011;11930;53.076;18.250;2022-11-15T04:32:28;158.43;;;39.53;;
23506;SDS011;11930;53.076;18.250;2022-11-15T04:35:12;139.80;;;36.70;;
23506;SDS011;11930;53.076;18.250;2022-11-15T04:37:57;157.87;;;38.73;;
23506;SDS011;11930;53.076;18.250;2022-11-15T04:40:42;140.73;;;38.03;;
23506;SDS011;11930;53.076;18.250;2022-11-15T04:43:27;147.17;;;37.67;;
23506;SDS011;11930;53.076;18.250;2022-11-15T04:46:12;157.67;;;37.63;;
23506;SDS011;11930;53.076;18.250;2022-11-15T04:48:57;150.10;;;36.77;;
23506;SDS011;11930;53.076;18.250;2022-11-15T04:51:41;134.43;;;34.37;;
23506;SDS011;11930;53.076;18.250;2022-11-15T04:54:26;130.63;;;34.97;;
23506;SDS011;11930;53.076;18.250;2022-11-15T04:57:10;132.77;;;34.90;;
23506;SDS011;11930;53.076;18.250;2022-11-15T04:59:55;121.57;;;33.53;;
23506;SDS011;11930;53.076;18.250;2022-11-15T05:02:39;131.07;;;35.17;;
23506;SDS011;11930;53.076;18.250;2022-11-15T05:05:42;146.80;;;34.57;;
23506;SDS011;11930;53.076;18.250;2022-11-15T05:08:27;141.63;;;35.30;;
23506;SDS011;11930;53.076;18.250;2022-11-15T05:11:12;121.03;;;34.07;;
23506;SDS011;11930;53.076;18.250;2022-11-15T05:13:56;136.57;;;34.27;;
23506;SDS011;11930;53.076;18.250;2022-11-15T05:16:41;131.10;;;33.40;;
23506;SDS011;11930;53.076;18.250;2022-11-15T05:19:26;136.87;;;35.30;;
23506;SDS011;11930;53.076;18.250;2022-11-15T05:22:11;134.17;;;34.27;;
23506;SDS011;11930;53.076;18.250;2022-11-15T05:24:55;133.33;;;34.07;;
23506;SDS011;11930;53.076;18.250;2022-11-15T05:27:40;139.83;;;35.10;;
23506;SDS011;11930;53.076;18.250;2022-11-15T05:30:24;145.83;;;36.07;;
23506;SDS011;11930;53.076;18.250;2022-11-15T05:33:09;134.93;;;34.33;;
23506;SDS011;11930;53.076;18.250;2022-11-15T05:36:36;132.43;;;33.40;;
23506;SDS011;11930;53.076;18.250;2022-11-15T05:39:22;141.23;;;34.20;;
23506;SDS011;11930;53.076;18.250;2022-11-15T05:44:55;130.10;;;31.63;;
23506;SDS011;11930;53.076;18.250;2022-11-15T05:47:42;139.77;;;35.40;;
23506;SDS011;11930;53.076;18.250;2022-11-15T05:50:27;121.87;;;34.30;;
23506;SDS011;11930;53.076;18.250;2022-11-15T05:53:12;134.20;;;34.30;;
23506;SDS011;11930;53.076;18.250;2022-11-15T05:56:00;145.27;;;35.83;;
23506;SDS011;11930;53.076;18.250;2022-11-15T05:58:44;137.63;;;35.27;;
23506;SDS011;11930;53.076;18.250;2022-11-15T06:01:29;158.83;;;35.93;;
23506;SDS011;11930;53.076;18.250;2022-11-15T06:04:14;151.60;;;35.00;;
23506;SDS011;11930;53.076;18.250;2022-11-15T06:06:58;145.40;;;34.77;;
23506;SDS011;11930;53.076;18.250;2022-11-15T06:09:43;142.43;;;33.83;;
23506;SDS011;11930;53.076;18.250;2022-11-15T06:12:28;132.63;;;33.53;;
23506;SDS011;11930;53.076;18.250;2022-11-15T06:15:12;139.07;;;35.67;;
23506;SDS011;11930;53.076;18.250;2022-11-15T06:17:57;139.63;;;34.80;;
23506;SDS011;11930;53.076;18.250;2022-11-15T06:20:41;139.07;;;33.93;;
23506;SDS011;11930;53.076;18.250;2022-11-15T06:23:26;139.73;;;32.80;;
23506;SDS011;11930;53.076;18.250;2022-11-15T06:26:11;135.17;;;33.03;;
23506;SDS011;11930;53.076;18.250;2022-11-15T06:28:56;126.10;;;33.43;;
23506;SDS011;11930;53.076;18.250;2022-11-15T06:31:40;129.80;;;32.43;;
23506;SDS011;11930;53.076;18.250;2022-11-15T06:34:25;127.63;;;35.47;;
23506;SDS011;11930;53.076;18.250;2022-11-15T06:37:09;134.67;;;35.77;;
23506;SDS011;11930;53.076;18.250;2022-11-15T06:39:54;140.83;;;34.03;;
23506;SDS011;11930;53.076;18.250;2022-11-15T06:42:38;125.13;;;33.03;;
23506;SDS011;11930;53.076;18.250;2022-11-15T06:45:23;136.90;;;33.33;;
23506;SDS011;11930;53.076;18.250;2022-11-15T06:48:07;130.57;;;33.23;;
23506;SDS011;11930;53.076;18.250;2022-11-15T06:50:52;135.63;;;33.03;;
23506;SDS011;11930;53.076;18.250;2022-11-15T06:53:40;120.60;;;32.90;;
23506;SDS011;11930;53.076;18.250;2022-11-15T06:56:25;126.80;;;31.13;;
23506;SDS011;11930;53.076;18.250;2022-11-15T06:59:09;127.40;;;34.67;;
23506;SDS011;11930;53.076;18.250;2022-11-15T07:01:54;121.10;;;32.03;;
23506;SDS011;11930;53.076;18.250;2022-11-15T07:04:39;146.57;;;36.87;;
23506;SDS011;11930;53.076;18.250;2022-11-15T07:07:23;138.53;;;36.00;;
23506;SDS011;11930;53.076;18.250;2022-11-15T07:10:08;133.50;;;32.20;;
23506;SDS011;11930;53.076;18.250;2022-11-15T07:12:53;132.67;;;33.73;;
23506;SDS011;11930;53.076;18.250;2022-11-15T07:15:39;134.57;;;36.07;;
23506;SDS011;11930;53.076;18.250;2022-11-15T07:18:23;139.17;;;34.23;;
23506;SDS011;11930;53.076;18.250;2022-11-15T07:21:09;123.90;;;35.13;;
23506;SDS011;11930;53.076;18.250;2022-11-15T07:23:54;117.70;;;32.87;;
23506;SDS011;11930;53.076;18.250;2022-11-15T07:26:39;173.03;;;61.80;;
23506;SDS011;11930;53.076;18.250;2022-11-15T07:29:24;133.47;;;36.13;;
23506;SDS011;11930;53.076;18.250;2022-11-15T07:32:08;132.97;;;44.83;;
23506;SDS011;11930;53.076;18.250;2022-11-15T07:34:53;126.80;;;34.33;;
23506;SDS011;11930;53.076;18.250;2022-11-15T07:37:37;135.13;;;34.67;;
23506;SDS011;11930;53.076;18.250;2022-11-15T07:40:22;129.40;;;33.73;;
23506;SDS011;11930;53.076;18.250;2022-11-15T07:43:07;127.03;;;34.93;;
23506;SDS011;11930;53.076;18.250;2022-11-15T07:45:53;118.43;;;30.43;;
23506;SDS011;11930;53.076;18.250;2022-11-15T07:48:38;136.70;;;32.57;;
23506;SDS011;11930;53.076;18.250;2022-11-15T07:51:24;118.77;;;32.63;;
23506;SDS011;11930;53.076;18.250;2022-11-15T07:54:08;123.07;;;31.77;;
23506;SDS011;11930;53.076;18.250;2022-11-15T07:56:52;117.17;;;33.07;;
23506;SDS011;11930;53.076;18.250;2022-11-15T07:59:36;100.87;;;29.13;;
23506;SDS011;11930;53.076;18.250;2022-11-15T08:02:21;113.10;;;30.93;;
23506;SDS011;11930;53.076;18.250;2022-11-15T08:05:06;104.70;;;31.33;;
23506;SDS011;11930;53.076;18.250;2022-11-15T08:07:50;112.10;;;31.20;;
23506;SDS011;11930;53.076;18.250;2022-11-15T08:10:35;103.23;;;29.53;;
23506;SDS011;11930;53.076;18.250;2022-11-15T08:13:20;100.70;;;31.50;;
23506;SDS011;11930;53.076;18.250;2022-11-15T08:16:05;97.50;;;30.00;;
23506;SDS011;11930;53.076;18.250;2022-11-15T08:18:50;105.27;;;29.17;;
23506;SDS011;11930;53.076;18.250;2022-11-15T08:21:34;92.93;;;28.73;;
23506;SDS011;11930;53.076;18.250;2022-11-15T08:24:19;85.37;;;28.53;;
23506;SDS011;11930;53.076;18.250;2022-11-15T08:27:04;84.93;;;27.13;;
23506;SDS011;11930;53.076;18.250;2022-11-15T08:29:58;84.30;;;26.70;;
23506;SDS011;11930;53.076;18.250;2022-11-15T08:32:42;81.73;;;27.00;;
23506;SDS011;11930;53.076;18.250;2022-11-15T08:35:27;90.87;;;27.80;;
23506;SDS011;11930;53.076;18.250;2022-11-15T08:38:12;90.10;;;26.20;;
23506;SDS011;11930;53.076;18.250;2022-11-15T08:41:01;88.53;;;28.00;;
23506;SDS011;11930;53.076;18.250;2022-11-15T08:43:48;94.77;;;28.63;;
23506;SDS011;11930;53.076;18.250;2022-11-15T08:46:33;97.47;;;29.87;;
23506;SDS011;11930;53.076;18.250;2022-11-15T08:49:17;88.30;;;28.27;;
23506;SDS011;11930;53.076;18.250;2022-11-15T08:52:02;94.17;;;29.53;;
23506;SDS011;11930;53.076;18.250;2022-11-15T08:54:47;99.57;;;30.90;;
23506;SDS011;11930;53.076;18.250;2022-11-15T08:57:32;106.67;;;32.07;;
23506;SDS011;11930;53.076;18.250;2022-11-15T09:00:17;107.30;;;30.80;;
23506;SDS011;11930;53.076;18.250;2022-11-15T09:03:06;91.80;;;30.93;;
23506;SDS011;11930;53.076;18.250;2022-11-15T09:05:56;96.47;;;31.00;;
23506;SDS011;11930;53.076;18.250;2022-11-15T09:08:41;87.57;;;28.40;;
23506;SDS011;11930;53.076;18.250;2022-11-15T09:11:25;98.63;;;30.60;;
23506;SDS011;11930;53.076;18.250;2022-11-15T09:14:13;91.33;;;28.97;;
23506;SDS011;11930;53.076;18.250;2022-11-15T09:16:58;90.10;;;28.90;;
23506;SDS011;11930;53.076;18.250;2022-11-15T09:19:43;81.17;;;28.73;;
23506;SDS011;11930;53.076;18.250;2022-11-15T09:22:27;75.40;;;26.63;;
23506;SDS011;11930;53.076;18.250;2022-11-15T09:25:12;80.40;;;26.60;;
23506;SDS011;11930;53.076;18.250;2022-11-15T09:27:57;78.13;;;25.40;;
23506;SDS011;11930;53.076;18.250;2022-11-15T09:30:42;80.23;;;26.37;;
23506;SDS011;11930;53.076;18.250;2022-11-15T09:33:27;83.03;;;27.57;;
23506;SDS011;11930;53.076;18.250;2022-11-15T09:36:12;76.33;;;27.07;;
23506;SDS011;11930;53.076;18.250;2022-11-15T09:38:57;70.70;;;25.90;;
23506;SDS011;11930;53.076;18.250;2022-11-15T09:48:00;81.93;;;26.37;;
23506;SDS011;11930;53.076;18.250;2022-11-15T09:50:49;82.60;;;27.83;;
23506;SDS011;11930;53.076;18.250;2022-11-15T09:53:41;74.80;;;27.73;;
23506;SDS011;11930;53.076;18.250;2022-11-15T09:56:14;87.47;;;27.83;;
23506;SDS011;11930;53.076;18.250;2022-11-15T10:01:49;85.00;;;28.83;;
23506;SDS011;11930;53.076;18.250;2022-11-15T10:04:15;87.00;;;29.97;;
23506;SDS011;11930;53.076;18.250;2022-11-15T10:06:43;83.93;;;28.30;;
23506;SDS011;11930;53.076;18.250;2022-11-15T10:09:29;86.40;;;28.73;;
23506;SDS011;11930;53.076;18.250;2022-11-15T10:12:02;88.07;;;28.83;;
23506;SDS011;11930;53.076;18.250;2022-11-15T10:14:28;94.63;;;31.30;;
23506;SDS011;11930;53.076;18.250;2022-11-15T10:19:31;93.67;;;32.63;;
23506;SDS011;11930;53.076;18.250;2022-11-15T10:24:37;98.03;;;32.97;;
23506;SDS011;11930;53.076;18.250;2022-11-15T10:27:11;102.10;;;33.47;;
23506;SDS011;11930;53.076;18.250;2022-11-15T10:29:42;105.40;;;33.70;;
23506;SDS011;11930;53.076;18.250;2022-11-15T10:32:13;106.53;;;35.47;;
23506;SDS011;11930;53.076;18.250;2022-11-15T10:34:40;101.47;;;34.50;;
23506;SDS011;11930;53.076;18.250;2022-11-15T10:37:07;103.80;;;33.80;;
23506;SDS011;11930;53.076;18.250;2022-11-15T10:39:33;105.23;;;34.53;;
23506;SDS011;11930;53.076;18.250;2022-11-15T10:42:14;99.83;;;33.47;;
23506;SDS011;11930;53.076;18.250;2022-11-15T10:44:45;95.33;;;32.53;;
23506;SDS011;11930;53.076;18.250;2022-11-15T10:47:25;96.37;;;33.10;;
23506;SDS011;11930;53.076;18.250;2022-11-15T10:49:57;95.33;;;33.00;;
23506;SDS011;11930;53.076;18.250;2022-11-15T10:52:29;95.90;;;31.80;;
23506;SDS011;11930;53.076;18.250;2022-11-15T10:57:29;87.30;;;29.77;;
23506;SDS011;11930;53.076;18.250;2022-11-15T10:59:58;82.83;;;30.00;;
23506;SDS011;11930;53.076;18.250;2022-11-15T11:02:29;85.63;;;29.70;;
23506;SDS011;11930;53.076;18.250;2022-11-15T11:05:02;87.90;;;29.80;;
23506;SDS011;11930;53.076;18.250;2022-11-15T11:07:31;80.43;;;29.23;;
23506;SDS011;11930;53.076;18.250;2022-11-15T11:10:01;87.37;;;29.80;;
23506;SDS011;11930;53.076;18.250;2022-11-15T11:12:44;83.87;;;29.07;;
23506;SDS011;11930;53.076;18.250;2022-11-15T11:15:12;82.73;;;29.83;;
23506;SDS011;11930;53.076;18.250;2022-11-15T11:17:57;84.47;;;28.77;;
23506;SDS011;11930;53.076;18.250;2022-11-15T11:20:41;85.53;;;29.17;;
23506;SDS011;11930;53.076;18.250;2022-11-15T11:40:13;86.93;;;29.23;;
23506;SDS011;11930;53.076;18.250;2022-11-15T11:47:40;86.70;;;30.37;;
23506;SDS011;11930;53.076;18.250;2022-11-15T11:50:23;86.13;;;27.73;;
23506;SDS011;11930;53.076;18.250;2022-11-15T11:53:15;86.37;;;28.47;;
23506;SDS011;11930;53.076;18.250;2022-11-15T11:55:40;84.60;;;28.37;;
23506;SDS011;11930;53.076;18.250;2022-11-15T12:00:40;77.23;;;27.73;;
23506;SDS011;11930;53.076;18.250;2022-11-15T12:06:04;94.93;;;30.60;;
23506;SDS011;11930;53.076;18.250;2022-11-15T12:08:49;83.10;;;29.03;;
23506;SDS011;11930;53.076;18.250;2022-11-15T12:13:56;91.20;;;31.97;;
23506;SDS011;11930;53.076;18.250;2022-11-15T12:16:28;95.37;;;29.83;;
23506;SDS011;11930;53.076;18.250;2022-11-15T12:19:01;91.27;;;32.53;;
23506;SDS011;11930;53.076;18.250;2022-11-15T12:24:08;88.93;;;29.73;;
23506;SDS011;11930;53.076;18.250;2022-11-15T12:26:47;92.53;;;30.27;;
23506;SDS011;11930;53.076;18.250;2022-11-15T12:29:23;109.63;;;44.70;;
23506;SDS011;11930;53.076;18.250;2022-11-15T12:31:58;103.57;;;35.73;;
23506;SDS011;11930;53.076;18.250;2022-11-15T12:34:33;86.97;;;30.70;;
23506;SDS011;11930;53.076;18.250;2022-11-15T12:43:02;87.70;;;30.03;;
23506;SDS011;11930;53.076;18.250;2022-11-15T12:45:39;83.17;;;29.40;;
23506;SDS011;11930;53.076;18.250;2022-11-15T12:58:44;89.37;;;30.70;;
23506;SDS011;11930;53.076;18.250;2022-11-15T13:01:56;188.10;;;73.47;;
23506;SDS011;11930;53.076;18.250;2022-11-15T13:11:58;93.30;;;30.57;;
23506;SDS011;11930;53.076;18.250;2022-11-15T13:14:44;93.67;;;30.17;;
23506;SDS011;11930;53.076;18.250;2022-11-15T13:22:58;100.47;;;33.07;;
23506;SDS011;11930;53.076;18.250;2022-11-15T13:27:53;155.43;;;64.90;;
23506;SDS011;11930;53.076;18.250;2022-11-15T13:30:26;97.73;;;33.17;;
23506;SDS011;11930;53.076;18.250;2022-11-15T13:32:54;89.30;;;31.03;;
23506;SDS011;11930;53.076;18.250;2022-11-15T13:35:25;86.80;;;30.77;;
23506;SDS011;11930;53.076;18.250;2022-11-15T13:37:54;86.07;;;29.50;;
23506;SDS011;11930;53.076;18.250;2022-11-15T13:42:47;84.03;;;27.67;;
23506;SDS011;11930;53.076;18.250;2022-11-15T13:45:14;81.30;;;29.07;;
23506;SDS011;11930;53.076;18.250;2022-11-15T13:47:42;112.10;;;39.00;;
23506;SDS011;11930;53.076;18.250;2022-11-15T13:50:12;99.90;;;32.27;;
23506;SDS011;11930;53.076;18.250;2022-11-15T13:52:39;98.13;;;34.77;;
23506;SDS011;11930;53.076;18.250;2022-11-15T13:57:50;88.13;;;29.67;;
23506;SDS011;11930;53.076;18.250;2022-11-15T14:03:05;99.73;;;31.43;;
23506;SDS011;11930;53.076;18.250;2022-11-15T14:05:39;88.43;;;28.07;;
23506;SDS011;11930;53.076;18.250;2022-11-15T14:10:41;91.27;;;30.73;;
23506;SDS011;11930;53.076;18.250;2022-11-15T14:16:32;88.93;;;28.47;;
23506;SDS011;11930;53.076;18.250;2022-11-15T14:19:03;87.03;;;27.53;;
23506;SDS011;11930;53.076;18.250;2022-11-15T14:21:30;90.30;;;28.17;;
23506;SDS011;11930;53.076;18.250;2022-11-15T14:26:45;77.73;;;25.57;;
23506;SDS011;11930;53.076;18.250;2022-11-15T14:29:30;82.83;;;26.10;;
23506;SDS011;11930;53.076;18.250;2022-11-15T14:32:06;76.57;;;25.40;;
23506;SDS011;11930;53.076;18.250;2022-11-15T14:34:40;89.57;;;28.87;;
23506;SDS011;11930;53.076;18.250;2022-11-15T14:37:26;82.27;;;26.23;;
23506;SDS011;11930;53.076;18.250;2022-11-15T14:39:54;78.20;;;26.07;;
23506;SDS011;11930;53.076;18.250;2022-11-15T14:42:21;84.63;;;26.33;;
23506;SDS011;11930;53.076;18.250;2022-11-15T14:44:48;84.40;;;28.27;;
23506;SDS011;11930;53.076;18.250;2022-11-15T14:47:14;87.00;;;27.87;;
23506;SDS011;11930;53.076;18.250;2022-11-15T14:49:41;93.03;;;28.57;;
23506;SDS011;11930;53.076;18.250;2022-11-15T14:52:28;87.87;;;28.60;;
23506;SDS011;11930;53.076;18.250;2022-11-15T14:54:55;85.03;;;27.63;;
23506;SDS011;11930;53.076;18.250;2022-11-15T14:57:21;88.60;;;27.50;;
23506;SDS011;11930;53.076;18.250;2022-11-15T14:59:48;82.63;;;27.47;;
23506;SDS011;11930;53.076;18.250;2022-11-15T15:02:16;84.63;;;26.73;;
23506;SDS011;11930;53.076;18.250;2022-11-15T15:04:47;85.40;;;28.40;;
23506;SDS011;11930;53.076;18.250;2022-11-15T15:07:13;87.37;;;29.93;;
23506;SDS011;11930;53.076;18.250;2022-11-15T15:09:40;81.53;;;27.83;;
23506;SDS011;11930;53.076;18.250;2022-11-15T15:12:22;89.07;;;28.63;;
23506;SDS011;11930;53.076;18.250;2022-11-15T15:14:49;90.17;;;30.20;;
23506;SDS011;11930;53.076;18.250;2022-11-15T15:17:16;89.27;;;28.70;;
23506;SDS011;11930;53.076;18.250;2022-11-15T15:19:43;92.70;;;28.13;;
23506;SDS011;11930;53.076;18.250;2022-11-15T15:22:13;90.90;;;30.03;;
23506;SDS011;11930;53.076;18.250;2022-11-15T15:24:42;86.07;;;26.83;;
23506;SDS011;11930;53.076;18.250;2022-11-15T15:27:09;89.93;;;28.43;;
23506;SDS011;11930;53.076;18.250;2022-11-15T15:29:35;95.63;;;29.30;;
23506;SDS011;11930;53.076;18.250;2022-11-15T15:32:02;80.20;;;27.13;;
23506;SDS011;11930;53.076;18.250;2022-11-15T15:34:28;70.40;;;26.27;;
23506;SDS011;11930;53.076;18.250;2022-11-15T15:39:56;77.87;;;25.67;;
23506;SDS011;11930;53.076;18.250;2022-11-15T15:42:22;82.27;;;28.33;;
23506;SDS011;11930;53.076;18.250;2022-11-15T15:44:49;72.33;;;24.63;;
23506;SDS011;11930;53.076;18.250;2022-11-15T15:47:19;74.40;;;25.57;;
23506;SDS011;11930;53.076;18.250;2022-11-15T15:49:46;73.40;;;25.77;;
23506;SDS011;11930;53.076;18.250;2022-11-15T15:52:13;76.97;;;26.70;;
23506;SDS011;11930;53.076;18.250;2022-11-15T15:54:39;100.00;;;34.63;;
23506;SDS011;11930;53.076;18.250;2022-11-15T15:57:05;93.23;;;31.47;;
23506;SDS011;11930;53.076;18.250;2022-11-15T15:59:33;90.33;;;30.13;;
23506;SDS011;11930;53.076;18.250;2022-11-15T16:01:59;88.83;;;32.67;;
23506;SDS011;11930;53.076;18.250;2022-11-15T16:04:26;88.57;;;28.87;;
23506;SDS011;11930;53.076;18.250;2022-11-15T16:06:58;88.80;;;29.27;;
23506;SDS011;11930;53.076;18.250;2022-11-15T16:09:28;101.63;;;31.00;;
23506;SDS011;11930;53.076;18.250;2022-11-15T16:12:12;97.90;;;30.80;;
23506;SDS011;11930;53.076;18.250;2022-11-15T16:14:39;105.37;;;32.57;;
23506;SDS011;11930;53.076;18.250;2022-11-15T16:17:05;97.33;;;29.80;;
23506;SDS011;11930;53.076;18.250;2022-11-15T16:19:32;97.03;;;29.23;;
23506;SDS011;11930;53.076;18.250;2022-11-15T16:21:58;86.93;;;30.57;;
23506;SDS011;11930;53.076;18.250;2022-11-15T16:24:24;96.47;;;29.23;;
23506;SDS011;11930;53.076;18.250;2022-11-15T16:26:50;97.37;;;29.67;;
23506;SDS011;11930;53.076;18.250;2022-11-15T16:29:16;95.07;;;28.47;;
23506;SDS011;11930;53.076;18.250;2022-11-15T16:31:42;87.13;;;28.97;;
23506;SDS011;11930;53.076;18.250;2022-11-15T16:34:08;95.30;;;28.43;;
23506;SDS011;11930;53.076;18.250;2022-11-15T16:36:34;93.77;;;29.60;;
23506;SDS011;11930;53.076;18.250;2022-11-15T16:39:01;91.60;;;28.70;;
23506;SDS011;11930;53.076;18.250;2022-11-15T16:41:29;85.97;;;28.40;;
23506;SDS011;11930;53.076;18.250;2022-11-15T16:43:56;83.63;;;29.67;;
23506;SDS011;11930;53.076;18.250;2022-11-15T16:46:23;87.10;;;30.50;;
23506;SDS011;11930;53.076;18.250;2022-11-15T16:48:51;91.87;;;29.77;;
23506;SDS011;11930;53.076;18.250;2022-11-15T16:51:20;91.07;;;30.57;;
23506;SDS011;11930;53.076;18.250;2022-11-15T16:53:47;96.23;;;30.73;;
23506;SDS011;11930;53.076;18.250;2022-11-15T16:58:49;95.73;;;29.27;;
23506;SDS011;11930;53.076;18.250;2022-11-15T17:01:19;100.73;;;33.43;;
23506;SDS011;11930;53.076;18.250;2022-11-15T17:03:48;83.07;;;28.00;;
23506;SDS011;11930;53.076;18.250;2022-11-15T17:06:14;76.77;;;25.83;;
23506;SDS011;11930;53.076;18.250;2022-11-15T17:08:43;81.00;;;30.67;;
23506;SDS011;11930;53.076;18.250;2022-11-15T17:11:10;78.93;;;27.67;;
23506;SDS011;11930;53.076;18.250;2022-11-15T17:13:41;82.37;;;28.60;;
23506;SDS011;11930;53.076;18.250;2022-11-15T17:16:11;102.40;;;35.50;;
23506;SDS011;11930;53.076;18.250;2022-11-15T17:18:39;105.77;;;44.47;;
23506;SDS011;11930;53.076;18.250;2022-11-15T17:21:07;97.67;;;32.87;;
23506;SDS011;11930;53.076;18.250;2022-11-15T17:23:38;99.20;;;34.47;;
23506;SDS011;11930;53.076;18.250;2022-11-15T17:26:04;107.13;;;33.67;;
23506;SDS011;11930;53.076;18.250;2022-11-15T17:28:31;89.30;;;27.53;;
23506;SDS011;11930;53.076;18.250;2022-11-15T17:30:58;91.60;;;29.47;;
23506;SDS011;11930;53.076;18.250;2022-11-15T17:33:25;86.20;;;29.37;;
23506;SDS011;11930;53.076;18.250;2022-11-15T17:35:58;98.63;;;32.10;;
23506;SDS011;11930;53.076;18.250;2022-11-15T17:38:26;80.80;;;27.23;;
23506;SDS011;11930;53.076;18.250;2022-11-15T17:43:56;82.10;;;26.58;;